AUA4012 EPWR-LOWI
Flight info
| Callsign | AUA4012 |
|---|---|
| Flight time | 1h 17m |
| Altitude | 38000 |
| Route | PEKOT DCT NANIT NANIT2A |
| Aircraft | A20N/M-SDE2E3FGHIRWXY/LB1 |
Departure
| Time | 2026-05-05 11:15 |
|---|---|
| Airport | Copernicus Wrocław Airport (EPWR) |
Arrival
| Time | 2026-05-05 12:32 |
|---|---|
| Airport | Innsbruck Airport (LOWI) |
| Time | Latitude | Longitude | Altitude | Speed | Heading |
|---|---|---|---|---|---|
| 2026-05-05 10:40 | 51.10891 | 16.87925 | 412 ft | 0 kts | 22° |
| 2026-05-05 11:00 | 51.10890 | 16.87925 | 412 ft | 2 kts | 22° |
| 2026-05-05 11:00 | 51.10875 | 16.87914 | 405 ft | 2 kts | 25° |
| 2026-05-05 11:00 | 51.10860 | 16.87902 | 406 ft | 2 kts | 30° |
| 2026-05-05 11:00 | 51.10846 | 16.87888 | 402 ft | 2 kts | 41° |
| 2026-05-05 11:01 | 51.10836 | 16.87868 | 408 ft | 2 kts | 77° |
| 2026-05-05 11:01 | 51.10836 | 16.87843 | 412 ft | 2 kts | 113° |
| 2026-05-05 11:01 | 51.10838 | 16.87836 | 412 ft | 0 kts | 116° |
| 2026-05-05 11:06 | 51.10839 | 16.87833 | 412 ft | 2 kts | 127° |
| 2026-05-05 11:06 | 51.10857 | 16.87830 | 404 ft | 0 kts | 255° |
| 2026-05-05 11:06 | 51.10856 | 16.87822 | 404 ft | 4 kts | 255° |
| 2026-05-05 11:06 | 51.10870 | 16.87730 | 405 ft | 11 kts | 295° |
| 2026-05-05 11:07 | 51.10910 | 16.87602 | 410 ft | 15 kts | 296° |
| 2026-05-05 11:07 | 51.10941 | 16.87500 | 407 ft | 14 kts | 295° |
| 2026-05-05 11:07 | 51.10913 | 16.87396 | 412 ft | 14 kts | 206° |
| 2026-05-05 11:07 | 51.10815 | 16.87320 | 409 ft | 12 kts | 206° |
| 2026-05-05 11:08 | 51.10767 | 16.87283 | 412 ft | 0 kts | 206° |
| 2026-05-05 11:09 | 51.10764 | 16.87281 | 412 ft | 2 kts | 206° |
| 2026-05-05 11:09 | 51.10734 | 16.87258 | 409 ft | 7 kts | 206° |
| 2026-05-05 11:09 | 51.10678 | 16.87264 | 409 ft | 11 kts | 137° |
| 2026-05-05 11:09 | 51.10641 | 16.87371 | 411 ft | 12 kts | 115° |
| 2026-05-05 11:10 | 51.10598 | 16.87511 | 410 ft | 17 kts | 117° |
| 2026-05-05 11:10 | 51.10534 | 16.87717 | 410 ft | 23 kts | 116° |
| 2026-05-05 11:10 | 51.10472 | 16.87920 | 409 ft | 22 kts | 116° |
| 2026-05-05 11:10 | 51.10414 | 16.88110 | 412 ft | 19 kts | 116° |
| 2026-05-05 11:11 | 51.10352 | 16.88312 | 412 ft | 23 kts | 116° |
| 2026-05-05 11:11 | 51.10270 | 16.88577 | 410 ft | 31 kts | 116° |
| 2026-05-05 11:11 | 51.10192 | 16.88866 | 410 ft | 25 kts | 115° |
| 2026-05-05 11:11 | 51.10138 | 16.89046 | 410 ft | 0 kts | 111° |
| 2026-05-05 11:12 | 51.10115 | 16.89120 | 409 ft | 14 kts | 116° |
| 2026-05-05 11:12 | 51.10058 | 16.89308 | 411 ft | 23 kts | 116° |
| 2026-05-05 11:12 | 51.10001 | 16.89493 | 408 ft | 14 kts | 116° |
| 2026-05-05 11:12 | 51.09952 | 16.89676 | 410 ft | 19 kts | 109° |
| 2026-05-05 11:13 | 51.09930 | 16.89738 | 409 ft | 0 kts | 154° |
| 2026-05-05 11:13 | 51.09923 | 16.89728 | 410 ft | 2 kts | 224° |
| 2026-05-05 11:13 | 51.09925 | 16.89707 | 407 ft | 1 kts | 291° |
| 2026-05-05 11:13 | 51.09931 | 16.89682 | 410 ft | 0 kts | 293° |
| 2026-05-05 11:14 | 51.09935 | 16.89668 | 408 ft | 12 kts | 293° |
| 2026-05-05 11:14 | 51.10070 | 16.89231 | 409 ft | 81 kts | 295° |
| 2026-05-05 11:14 | 51.10411 | 16.88118 | 412 ft | 140 kts | 296° |
| 2026-05-05 11:15 | 51.10863 | 16.86660 | 906 ft | 144 kts | 297° |
| 2026-05-05 11:15 | 51.11313 | 16.85208 | 1513 ft | 149 kts | 296° |
| 2026-05-05 11:15 | 51.11774 | 16.83720 | 2137 ft | 151 kts | 296° |
| 2026-05-05 11:15 | 51.12243 | 16.82204 | 2617 ft | 164 kts | 295° |
| 2026-05-05 11:16 | 51.12780 | 16.80426 | 3095 ft | 186 kts | 295° |
| 2026-05-05 11:16 | 51.13361 | 16.78474 | 3653 ft | 205 kts | 294° |
| 2026-05-05 11:16 | 51.13993 | 16.76341 | 4329 ft | 228 kts | 294° |
| 2026-05-05 11:16 | 51.14703 | 16.73906 | 4977 ft | 254 kts | 294° |
| 2026-05-05 11:17 | 51.15488 | 16.71257 | 5725 ft | 274 kts | 294° |
| 2026-05-05 11:17 | 51.16353 | 16.68478 | 6645 ft | 285 kts | 295° |
| 2026-05-05 11:17 | 51.17237 | 16.65662 | 7931 ft | 280 kts | 294° |
| 2026-05-05 11:17 | 51.18100 | 16.62892 | 9204 ft | 278 kts | 293° |
| 2026-05-05 11:18 | 51.19020 | 16.60139 | 10189 ft | 289 kts | 301° |
| 2026-05-05 11:18 | 51.20491 | 16.57874 | 11119 ft | 301 kts | 326° |
| 2026-05-05 11:18 | 51.22475 | 16.56747 | 12185 ft | 308 kts | 349° |
| 2026-05-05 11:18 | 51.24605 | 16.56959 | 13206 ft | 317 kts | 13° |
| 2026-05-05 11:19 | 51.26590 | 16.58528 | 14115 ft | 323 kts | 37° |
| 2026-05-05 11:19 | 51.28298 | 16.60921 | 14848 ft | 333 kts | 43° |
| 2026-05-05 11:19 | 51.30036 | 16.63434 | 15643 ft | 338 kts | 39° |
| 2026-05-05 11:19 | 51.31915 | 16.65711 | 16542 ft | 340 kts | 33° |
| 2026-05-05 11:20 | 51.33796 | 16.68043 | 17357 ft | 346 kts | 47° |
| 2026-05-05 11:20 | 51.35101 | 16.71273 | 18149 ft | 350 kts | 70° |
| 2026-05-05 11:20 | 51.35587 | 16.75070 | 18846 ft | 350 kts | 92° |
| 2026-05-05 11:20 | 51.35181 | 16.78873 | 19538 ft | 348 kts | 114° |
| 2026-05-05 11:21 | 51.34132 | 16.82422 | 19890 ft | 362 kts | 123° |
| 2026-05-05 11:21 | 51.32831 | 16.85997 | 20087 ft | 382 kts | 123° |
| 2026-05-05 11:21 | 51.31481 | 16.89779 | 20303 ft | 400 kts | 122° |
| 2026-05-05 11:21 | 51.30161 | 16.93743 | 20895 ft | 406 kts | 120° |
| 2026-05-05 11:22 | 51.28876 | 16.97792 | 21605 ft | 411 kts | 119° |
| 2026-05-05 11:22 | 51.27603 | 17.01843 | 22256 ft | 415 kts | 122° |
| 2026-05-05 11:22 | 51.25883 | 17.05527 | 22901 ft | 413 kts | 138° |
| 2026-05-05 11:22 | 51.23618 | 17.08331 | 23500 ft | 412 kts | 154° |
| 2026-05-05 11:23 | 51.20978 | 17.10066 | 24059 ft | 409 kts | 167° |
| 2026-05-05 11:23 | 51.18228 | 17.11234 | 24632 ft | 412 kts | 169° |
| 2026-05-05 11:23 | 51.15433 | 17.12351 | 25193 ft | 415 kts | 169° |
| 2026-05-05 11:23 | 51.12626 | 17.13482 | 25730 ft | 418 kts | 169° |
| 2026-05-05 11:24 | 51.09799 | 17.14647 | 26263 ft | 421 kts | 168° |
| 2026-05-05 11:24 | 51.06949 | 17.15841 | 26757 ft | 425 kts | 168° |
| 2026-05-05 11:24 | 51.04083 | 17.17053 | 27261 ft | 428 kts | 168° |
| 2026-05-05 11:24 | 51.01194 | 17.18277 | 27744 ft | 431 kts | 168° |
| 2026-05-05 11:25 | 50.98287 | 17.19509 | 28214 ft | 434 kts | 168° |
| 2026-05-05 11:25 | 50.95360 | 17.20748 | 28680 ft | 437 kts | 168° |
| 2026-05-05 11:25 | 50.92456 | 17.21976 | 29105 ft | 439 kts | 168° |
| 2026-05-05 11:25 | 50.89490 | 17.23227 | 29536 ft | 442 kts | 168° |
| 2026-05-05 11:26 | 50.86502 | 17.24484 | 29958 ft | 445 kts | 168° |
| 2026-05-05 11:26 | 50.83501 | 17.25746 | 30336 ft | 447 kts | 168° |
| 2026-05-05 11:26 | 50.80483 | 17.27013 | 30724 ft | 450 kts | 168° |
| 2026-05-05 11:26 | 50.77449 | 17.28286 | 31127 ft | 451 kts | 168° |
| 2026-05-05 11:27 | 50.74410 | 17.29560 | 31620 ft | 450 kts | 168° |
| 2026-05-05 11:27 | 50.71380 | 17.30829 | 32132 ft | 449 kts | 168° |
| 2026-05-05 11:27 | 50.68363 | 17.32089 | 32631 ft | 448 kts | 168° |
| 2026-05-05 11:27 | 50.65354 | 17.33344 | 33105 ft | 447 kts | 168° |
| 2026-05-05 11:28 | 50.62351 | 17.34595 | 33593 ft | 446 kts | 168° |
| 2026-05-05 11:28 | 50.59350 | 17.35842 | 34018 ft | 445 kts | 168° |
| 2026-05-05 11:28 | 50.56396 | 17.37069 | 34391 ft | 444 kts | 168° |
| 2026-05-05 11:28 | 50.53373 | 17.38323 | 34761 ft | 444 kts | 168° |
| 2026-05-05 11:29 | 50.50387 | 17.39560 | 35100 ft | 444 kts | 168° |
| 2026-05-05 11:29 | 50.47388 | 17.40676 | 35438 ft | 441 kts | 174° |
| 2026-05-05 11:29 | 50.44387 | 17.41002 | 35742 ft | 436 kts | 185° |
| 2026-05-05 11:29 | 50.41386 | 17.40459 | 36048 ft | 432 kts | 195° |
| 2026-05-05 11:30 | 50.38526 | 17.39089 | 36352 ft | 428 kts | 205° |
| 2026-05-05 11:30 | 50.35893 | 17.36961 | 36665 ft | 425 kts | 215° |
| 2026-05-05 11:30 | 50.33559 | 17.34155 | 36954 ft | 422 kts | 225° |
| 2026-05-05 11:30 | 50.31582 | 17.30791 | 37240 ft | 420 kts | 232° |
| 2026-05-05 11:31 | 50.29709 | 17.27260 | 37562 ft | 419 kts | 231° |
| 2026-05-05 11:31 | 50.27842 | 17.23769 | 37811 ft | 419 kts | 231° |
| 2026-05-05 11:31 | 50.25996 | 17.20329 | 37838 ft | 418 kts | 231° |
| 2026-05-05 11:32 | 50.22268 | 17.13392 | 37837 ft | 417 kts | 231° |
| 2026-05-05 11:32 | 50.18529 | 17.06454 | 37838 ft | 417 kts | 231° |
| 2026-05-05 11:33 | 50.14788 | 16.99534 | 37847 ft | 417 kts | 231° |
| 2026-05-05 11:33 | 50.11043 | 16.92625 | 37844 ft | 417 kts | 231° |
| 2026-05-05 11:34 | 50.07299 | 16.85737 | 37840 ft | 416 kts | 231° |
| 2026-05-05 11:34 | 50.03555 | 16.78868 | 37836 ft | 416 kts | 231° |
| 2026-05-05 11:35 | 49.99835 | 16.72059 | 37839 ft | 415 kts | 231° |
| 2026-05-05 11:35 | 49.96091 | 16.65225 | 37830 ft | 415 kts | 231° |
| 2026-05-05 11:36 | 49.92346 | 16.58407 | 37830 ft | 415 kts | 231° |
| 2026-05-05 11:36 | 49.88593 | 16.51592 | 37827 ft | 415 kts | 231° |
| 2026-05-05 11:37 | 49.84839 | 16.44794 | 37825 ft | 415 kts | 231° |
| 2026-05-05 11:37 | 49.81078 | 16.38001 | 37824 ft | 415 kts | 231° |
| 2026-05-05 11:38 | 49.77336 | 16.31257 | 37824 ft | 416 kts | 230° |
| 2026-05-05 11:38 | 49.73558 | 16.24469 | 37829 ft | 416 kts | 230° |
| 2026-05-05 11:39 | 49.69775 | 16.17688 | 37828 ft | 416 kts | 230° |
| 2026-05-05 11:39 | 49.65987 | 16.10917 | 37836 ft | 417 kts | 230° |
| 2026-05-05 11:40 | 49.62193 | 16.04153 | 37831 ft | 416 kts | 230° |
| 2026-05-05 11:40 | 49.58396 | 15.97401 | 37832 ft | 416 kts | 230° |
| 2026-05-05 11:41 | 49.54595 | 15.90659 | 37830 ft | 416 kts | 230° |
| 2026-05-05 11:41 | 49.50816 | 15.83973 | 37827 ft | 416 kts | 230° |
| 2026-05-05 11:42 | 49.46987 | 15.77216 | 37825 ft | 416 kts | 230° |
| 2026-05-05 11:42 | 49.43204 | 15.70557 | 37822 ft | 417 kts | 230° |
| 2026-05-05 11:43 | 49.39386 | 15.63855 | 37825 ft | 417 kts | 230° |
| 2026-05-05 11:43 | 49.35561 | 15.57158 | 37821 ft | 417 kts | 230° |
| 2026-05-05 11:44 | 49.31726 | 15.50460 | 37818 ft | 417 kts | 230° |
| 2026-05-05 11:44 | 49.27921 | 15.43832 | 37814 ft | 417 kts | 230° |
| 2026-05-05 11:45 | 49.24092 | 15.37177 | 37815 ft | 417 kts | 230° |
| 2026-05-05 11:45 | 49.20247 | 15.30513 | 37813 ft | 417 kts | 230° |
| 2026-05-05 11:46 | 49.16406 | 15.23874 | 37812 ft | 417 kts | 229° |
| 2026-05-05 11:46 | 49.12557 | 15.17236 | 37807 ft | 417 kts | 229° |
| 2026-05-05 11:47 | 49.08708 | 15.10614 | 37800 ft | 417 kts | 229° |
| 2026-05-05 11:47 | 49.04845 | 15.03986 | 37809 ft | 418 kts | 229° |
| 2026-05-05 11:48 | 48.99048 | 14.94071 | 37803 ft | 418 kts | 229° |
| 2026-05-05 11:48 | 48.95174 | 14.87467 | 37797 ft | 418 kts | 229° |
| 2026-05-05 11:49 | 48.91298 | 14.80876 | 37801 ft | 418 kts | 229° |
| 2026-05-05 11:49 | 48.87420 | 14.74297 | 37791 ft | 418 kts | 229° |
| 2026-05-05 11:50 | 48.83559 | 14.67764 | 37796 ft | 418 kts | 229° |
| 2026-05-05 11:50 | 48.79667 | 14.61194 | 37798 ft | 418 kts | 229° |
| 2026-05-05 11:51 | 48.75775 | 14.54642 | 37797 ft | 418 kts | 229° |
| 2026-05-05 11:51 | 48.71882 | 14.48104 | 37799 ft | 418 kts | 229° |
| 2026-05-05 11:52 | 48.67982 | 14.41571 | 37797 ft | 418 kts | 229° |
| 2026-05-05 11:52 | 48.64082 | 14.35055 | 37799 ft | 418 kts | 229° |
| 2026-05-05 11:53 | 48.60200 | 14.28583 | 37804 ft | 418 kts | 229° |
| 2026-05-05 11:53 | 48.56290 | 14.22080 | 37802 ft | 417 kts | 229° |
| 2026-05-05 11:54 | 48.52378 | 14.15592 | 37804 ft | 417 kts | 229° |
| 2026-05-05 11:54 | 48.48466 | 14.09119 | 37802 ft | 417 kts | 229° |
| 2026-05-05 11:55 | 48.45218 | 14.03758 | 37807 ft | 417 kts | 229° |
| 2026-05-05 11:55 | 48.40668 | 13.96266 | 37806 ft | 417 kts | 229° |
| 2026-05-05 11:56 | 48.36753 | 13.89833 | 37800 ft | 417 kts | 229° |
| 2026-05-05 11:56 | 48.33470 | 13.84454 | 37799 ft | 416 kts | 229° |
| 2026-05-05 11:57 | 48.29549 | 13.78042 | 37798 ft | 417 kts | 228° |
| 2026-05-05 11:57 | 48.25649 | 13.71681 | 37799 ft | 416 kts | 228° |
| 2026-05-05 11:58 | 48.21721 | 13.65291 | 37801 ft | 417 kts | 228° |
| 2026-05-05 11:58 | 48.17786 | 13.58902 | 37797 ft | 417 kts | 228° |
| 2026-05-05 11:59 | 48.13848 | 13.52527 | 37793 ft | 416 kts | 228° |
| 2026-05-05 11:59 | 48.09907 | 13.46161 | 37795 ft | 416 kts | 228° |
| 2026-05-05 12:00 | 48.05966 | 13.39810 | 37793 ft | 416 kts | 228° |
| 2026-05-05 12:00 | 48.02029 | 13.33481 | 37797 ft | 416 kts | 228° |
| 2026-05-05 12:01 | 47.98081 | 13.27151 | 37796 ft | 416 kts | 227° |
| 2026-05-05 12:01 | 47.94163 | 13.20880 | 37799 ft | 416 kts | 227° |
| 2026-05-05 12:02 | 47.90191 | 13.14541 | 37795 ft | 416 kts | 227° |
| 2026-05-05 12:02 | 47.86243 | 13.08256 | 37801 ft | 415 kts | 227° |
| 2026-05-05 12:03 | 47.82315 | 13.02017 | 37801 ft | 415 kts | 227° |
| 2026-05-05 12:03 | 47.78371 | 12.95768 | 37804 ft | 414 kts | 227° |
| 2026-05-05 12:04 | 47.74417 | 12.89518 | 37805 ft | 414 kts | 227° |
| 2026-05-05 12:04 | 47.70472 | 12.83295 | 37798 ft | 414 kts | 227° |
| 2026-05-05 12:05 | 47.66516 | 12.77071 | 37803 ft | 414 kts | 227° |
| 2026-05-05 12:05 | 47.62587 | 12.70904 | 37802 ft | 413 kts | 227° |
| 2026-05-05 12:06 | 47.58628 | 12.64706 | 37812 ft | 414 kts | 227° |
| 2026-05-05 12:06 | 47.54666 | 12.58517 | 37812 ft | 413 kts | 227° |
| 2026-05-05 12:07 | 47.50706 | 12.52342 | 37814 ft | 413 kts | 227° |
| 2026-05-05 12:07 | 47.46741 | 12.46168 | 37814 ft | 414 kts | 227° |
| 2026-05-05 12:08 | 47.42921 | 12.39811 | 37823 ft | 414 kts | 236° |
| 2026-05-05 12:08 | 47.40603 | 12.32068 | 37829 ft | 417 kts | 256° |
| 2026-05-05 12:09 | 47.40325 | 12.23521 | 37804 ft | 421 kts | 275° |
| 2026-05-05 12:09 | 47.40735 | 12.19284 | 37569 ft | 423 kts | 276° |
| 2026-05-05 12:09 | 47.41152 | 12.14972 | 37289 ft | 422 kts | 275° |
| 2026-05-05 12:10 | 47.41560 | 12.10683 | 37023 ft | 423 kts | 275° |
| 2026-05-05 12:10 | 47.41962 | 12.06381 | 36749 ft | 423 kts | 275° |
| 2026-05-05 12:10 | 47.42347 | 12.02066 | 36484 ft | 424 kts | 274° |
| 2026-05-05 12:10 | 47.42702 | 11.97738 | 36098 ft | 426 kts | 274° |
| 2026-05-05 12:11 | 47.43062 | 11.93386 | 35533 ft | 427 kts | 274° |
| 2026-05-05 12:11 | 47.43428 | 11.89039 | 34930 ft | 426 kts | 274° |
| 2026-05-05 12:11 | 47.43801 | 11.84694 | 34340 ft | 426 kts | 274° |
| 2026-05-05 12:11 | 47.44180 | 11.80348 | 33768 ft | 427 kts | 274° |
| 2026-05-05 12:12 | 47.44563 | 11.75996 | 33120 ft | 429 kts | 274° |
| 2026-05-05 12:12 | 47.44954 | 11.71589 | 32476 ft | 435 kts | 274° |
| 2026-05-05 12:12 | 47.45351 | 11.67131 | 31851 ft | 439 kts | 274° |
| 2026-05-05 12:12 | 47.45749 | 11.62700 | 31250 ft | 441 kts | 274° |
| 2026-05-05 12:13 | 47.46160 | 11.58188 | 30645 ft | 445 kts | 274° |
| 2026-05-05 12:13 | 47.46579 | 11.53633 | 30049 ft | 448 kts | 274° |
| 2026-05-05 12:13 | 47.47002 | 11.49071 | 29380 ft | 446 kts | 274° |
| 2026-05-05 12:13 | 47.47424 | 11.44556 | 28687 ft | 442 kts | 274° |
| 2026-05-05 12:14 | 47.47846 | 11.40074 | 28008 ft | 437 kts | 274° |
| 2026-05-05 12:14 | 47.48262 | 11.35664 | 27352 ft | 432 kts | 274° |
| 2026-05-05 12:14 | 47.48677 | 11.31282 | 26713 ft | 427 kts | 274° |
| 2026-05-05 12:14 | 47.49087 | 11.26948 | 26078 ft | 423 kts | 274° |
| 2026-05-05 12:15 | 47.49492 | 11.22665 | 25464 ft | 419 kts | 274° |
| 2026-05-05 12:15 | 47.49892 | 11.18407 | 24861 ft | 416 kts | 274° |
| 2026-05-05 12:15 | 47.50241 | 11.14665 | 24343 ft | 413 kts | 274° |
| 2026-05-05 12:15 | 47.50627 | 11.10468 | 23749 ft | 409 kts | 274° |
| 2026-05-05 12:16 | 47.51006 | 11.06311 | 23144 ft | 406 kts | 274° |
| 2026-05-05 12:16 | 47.51376 | 11.02195 | 22462 ft | 403 kts | 274° |
| 2026-05-05 12:16 | 47.51739 | 10.98098 | 21806 ft | 400 kts | 274° |
| 2026-05-05 12:16 | 47.52097 | 10.94030 | 21162 ft | 396 kts | 274° |
| 2026-05-05 12:17 | 47.52447 | 10.90000 | 20543 ft | 393 kts | 274° |
| 2026-05-05 12:17 | 47.52780 | 10.86020 | 19930 ft | 387 kts | 274° |
| 2026-05-05 12:17 | 47.53093 | 10.82169 | 19154 ft | 380 kts | 274° |
| 2026-05-05 12:17 | 47.53414 | 10.78306 | 18310 ft | 375 kts | 274° |
| 2026-05-05 12:18 | 47.53725 | 10.74500 | 17209 ft | 374 kts | 274° |
| 2026-05-05 12:18 | 47.54042 | 10.70656 | 15786 ft | 379 kts | 274° |
| 2026-05-05 12:18 | 47.54368 | 10.66745 | 14503 ft | 383 kts | 274° |
| 2026-05-05 12:18 | 47.54697 | 10.62881 | 13775 ft | 372 kts | 274° |
| 2026-05-05 12:19 | 47.55012 | 10.59184 | 13272 ft | 351 kts | 274° |
| 2026-05-05 12:19 | 47.55031 | 10.55707 | 13018 ft | 330 kts | 257° |
| 2026-05-05 12:19 | 47.54286 | 10.52454 | 12922 ft | 338 kts | 239° |
| 2026-05-05 12:19 | 47.52856 | 10.49767 | 12855 ft | 328 kts | 220° |
| 2026-05-05 12:20 | 47.50942 | 10.47962 | 12852 ft | 330 kts | 203° |
| 2026-05-05 12:20 | 47.48707 | 10.47171 | 12860 ft | 336 kts | 185° |
| 2026-05-05 12:20 | 47.46391 | 10.47529 | 12857 ft | 337 kts | 166° |
| 2026-05-05 12:20 | 47.44175 | 10.48685 | 12863 ft | 340 kts | 162° |
| 2026-05-05 12:21 | 47.41964 | 10.49893 | 12852 ft | 333 kts | 162° |
| 2026-05-05 12:21 | 47.39844 | 10.51049 | 12840 ft | 314 kts | 162° |
| 2026-05-05 12:21 | 47.37859 | 10.52128 | 12856 ft | 295 kts | 163° |
| 2026-05-05 12:21 | 47.35969 | 10.53145 | 12849 ft | 288 kts | 163° |
| 2026-05-05 12:22 | 47.34060 | 10.54159 | 12859 ft | 294 kts | 163° |
| 2026-05-05 12:22 | 47.32208 | 10.55142 | 12864 ft | 292 kts | 163° |
| 2026-05-05 12:22 | 47.30286 | 10.56380 | 12853 ft | 294 kts | 149° |
| 2026-05-05 12:22 | 47.28867 | 10.58547 | 12860 ft | 306 kts | 124° |
| 2026-05-05 12:23 | 47.28152 | 10.61511 | 12854 ft | 314 kts | 100° |
| 2026-05-05 12:23 | 47.28245 | 10.64759 | 12855 ft | 321 kts | 83° |
| 2026-05-05 12:23 | 47.28671 | 10.67990 | 12736 ft | 320 kts | 81° |
| 2026-05-05 12:23 | 47.29075 | 10.71170 | 12473 ft | 313 kts | 83° |
| 2026-05-05 12:24 | 47.29382 | 10.74329 | 12029 ft | 306 kts | 85° |
| 2026-05-05 12:24 | 47.29598 | 10.77367 | 11886 ft | 290 kts | 87° |
| 2026-05-05 12:24 | 47.29765 | 10.80243 | 11738 ft | 273 kts | 88° |
| 2026-05-05 12:24 | 47.29903 | 10.82939 | 11579 ft | 255 kts | 89° |
| 2026-05-05 12:25 | 47.30026 | 10.85456 | 11448 ft | 238 kts | 89° |
| 2026-05-05 12:25 | 47.30139 | 10.87803 | 11353 ft | 219 kts | 89° |
| 2026-05-05 12:25 | 47.30244 | 10.89956 | 11036 ft | 210 kts | 89° |
| 2026-05-05 12:25 | 47.30344 | 10.92113 | 10527 ft | 214 kts | 89° |
| 2026-05-05 12:26 | 47.30445 | 10.94283 | 10081 ft | 211 kts | 89° |
| 2026-05-05 12:26 | 47.30546 | 10.96420 | 9689 ft | 207 kts | 89° |
| 2026-05-05 12:26 | 47.30646 | 10.98513 | 9303 ft | 204 kts | 89° |
| 2026-05-05 12:26 | 47.30745 | 11.00595 | 8905 ft | 202 kts | 89° |
| 2026-05-05 12:27 | 47.30844 | 11.02670 | 8420 ft | 202 kts | 88° |
| 2026-05-05 12:27 | 47.30941 | 11.04731 | 7991 ft | 200 kts | 89° |
| 2026-05-05 12:27 | 47.30950 | 11.06753 | 7555 ft | 195 kts | 100° |
| 2026-05-05 12:27 | 47.30600 | 11.08629 | 7094 ft | 191 kts | 115° |
| 2026-05-05 12:28 | 47.30032 | 11.10402 | 6722 ft | 187 kts | 118° |
| 2026-05-05 12:28 | 47.29547 | 11.11844 | 6475 ft | 181 kts | 119° |
| 2026-05-05 12:28 | 47.29038 | 11.13338 | 6205 ft | 177 kts | 117° |
| 2026-05-05 12:28 | 47.28506 | 11.14933 | 5901 ft | 168 kts | 117° |
| 2026-05-05 12:29 | 47.27992 | 11.16451 | 5431 ft | 164 kts | 116° |
| 2026-05-05 12:29 | 47.27493 | 11.17940 | 4992 ft | 165 kts | 116° |
| 2026-05-05 12:29 | 47.26982 | 11.19511 | 4430 ft | 172 kts | 117° |
| 2026-05-05 12:29 | 47.26480 | 11.21053 | 4057 ft | 158 kts | 117° |
| 2026-05-05 12:30 | 47.26027 | 11.22434 | 3731 ft | 147 kts | 117° |
| 2026-05-05 12:30 | 47.25613 | 11.23694 | 3537 ft | 136 kts | 118° |
| 2026-05-05 12:30 | 47.25269 | 11.24890 | 3336 ft | 133 kts | 107° |
| 2026-05-05 12:30 | 47.25142 | 11.26260 | 3132 ft | 134 kts | 91° |
| 2026-05-05 12:31 | 47.25283 | 11.27624 | 3027 ft | 137 kts | 80° |
| 2026-05-05 12:31 | 47.25483 | 11.29013 | 2761 ft | 138 kts | 83° |
| 2026-05-05 12:31 | 47.25625 | 11.30374 | 2533 ft | 132 kts | 86° |
| 2026-05-05 12:31 | 47.25753 | 11.31696 | 2269 ft | 131 kts | 84° |
| 2026-05-05 12:32 | 47.25878 | 11.32986 | 1993 ft | 127 kts | 87° |
| 2026-05-05 12:32 | 47.25996 | 11.34164 | 1897 ft | 90 kts | 82° |
| 2026-05-05 12:32 | 47.26065 | 11.34834 | 1907 ft | 57 kts | 79° |
| 2026-05-05 12:32 | 47.26098 | 11.35219 | 1904 ft | 13 kts | 116° |
| 2026-05-05 12:33 | 47.26032 | 11.35265 | 1900 ft | 11 kts | 168° |
| 2026-05-05 12:33 | 47.25978 | 11.35277 | 1901 ft | 0 kts | 177° |